KMWT

Mount Ida Airport

Mount Ida, Arkansas, USA
METAR KMWT 221553Z AUTO 00000KT CLR 11/06 A3024 RMK AO2 SLP247 T01060061 $
Observed Flight Rules
Oct-22 @ 15:53 UTC (5 hours ago)
Clouds
  • Clear skies
Temperatures Readings
Current 11°C / 52°F
Dewpoint 6°C / 43°F
Humidity 72%
Altimeter 30.24" Hg
Pressure 1024.7 hPa
Elevation 214
METAR KMWT 221553Z AUTO 00000KT CLR 11/06 A3024 RMK AO2 SLP247 T01060061 $
Observed Flight Rules
Oct-22 @ 15:53 UTC
(5 hours ago)
Clouds
  • Clear skies
Temperature Dewpoint
11°C / 52°F 6°C / 43°F
Humidity Altimeter Pressure
72% 30.24" Hg 1024.7 hPa